createdAt,value
2023-03-31T00:00:38.368Z,0.00
2023-03-31T00:01:39.282Z,0.00
2023-03-31T00:02:38.344Z,0.00
2023-03-31T00:03:38.483Z,0.00
2023-03-31T00:04:38.372Z,0.00
2023-03-31T00:05:38.276Z,0.00
2023-03-31T00:06:38.456Z,0.00
2023-03-31T00:07:38.307Z,0.00
2023-03-31T00:08:38.357Z,0.00
2023-03-31T00:09:38.276Z,0.00
2023-03-31T00:10:38.214Z,0.00
2023-03-31T00:11:38.230Z,0.00
2023-03-31T00:12:38.285Z,0.00
2023-03-31T00:13:38.351Z,0.00
2023-03-31T00:14:38.192Z,0.00
2023-03-31T00:15:38.204Z,0.00
2023-03-31T00:16:38.233Z,0.00
2023-03-31T00:17:38.302Z,0.00
2023-03-31T00:18:38.180Z,0.00
2023-03-31T00:19:38.394Z,0.00
2023-03-31T00:20:38.289Z,0.00
2023-03-31T00:21:38.138Z,0.00
2023-03-31T00:22:38.202Z,0.00
2023-03-31T00:23:38.704Z,0.00
2023-03-31T00:24:38.573Z,0.00
2023-03-31T00:25:38.112Z,0.00
2023-03-31T00:26:38.063Z,0.00
2023-03-31T00:27:38.018Z,0.00
2023-03-31T00:28:38.147Z,0.00
2023-03-31T00:29:38.038Z,0.00
2023-03-31T00:30:38.041Z,0.00
2023-03-31T00:31:38.067Z,0.00
2023-03-31T00:32:38.009Z,0.00
2023-03-31T00:33:37.961Z,0.00
2023-03-31T00:34:37.964Z,0.00
2023-03-31T00:35:38.192Z,0.00
2023-03-31T00:36:37.936Z,0.00
2023-03-31T00:37:37.953Z,0.00
2023-03-31T00:38:37.962Z,0.00
2023-03-31T00:39:38.814Z,0.00
2023-03-31T00:40:37.977Z,0.00
2023-03-31T00:41:38.604Z,0.00
2023-03-31T00:42:37.885Z,0.00
2023-03-31T00:43:37.914Z,0.00
2023-03-31T00:44:37.930Z,0.00
2023-03-31T00:45:37.845Z,0.00
2023-03-31T00:46:37.849Z,0.00
2023-03-31T00:47:37.924Z,0.00
2023-03-31T00:48:37.853Z,0.00
2023-03-31T00:49:37.878Z,0.00
2023-03-31T00:50:38.526Z,0.00
2023-03-31T00:51:37.726Z,0.00
2023-03-31T00:52:37.761Z,0.00
2023-03-31T00:53:37.856Z,0.00
2023-03-31T00:54:37.760Z,0.00
2023-03-31T00:55:37.763Z,0.00
2023-03-31T00:56:37.876Z,0.00
2023-03-31T00:57:37.714Z,0.00
2023-03-31T00:58:37.681Z,0.00
2023-03-31T00:59:37.727Z,0.00
2023-03-31T01:00:37.705Z,0.00
2023-03-31T01:01:37.752Z,0.00
2023-03-31T01:02:37.739Z,0.00
2023-03-31T01:03:37.760Z,0.00
2023-03-31T01:04:37.637Z,0.00
2023-03-31T01:05:38.361Z,0.00
2023-03-31T01:06:37.720Z,0.00
2023-03-31T01:07:37.644Z,0.00
2023-03-31T01:08:37.565Z,0.00
2023-03-31T01:09:37.655Z,0.00
2023-03-31T01:10:37.649Z,0.00
2023-03-31T01:11:37.593Z,0.00
2023-03-31T01:12:37.673Z,0.00
2023-03-31T01:13:37.505Z,0.00
2023-03-31T01:14:37.495Z,0.00
2023-03-31T01:15:37.603Z,0.00
2023-03-31T01:16:37.645Z,0.00
2023-03-31T01:17:37.796Z,0.00
2023-03-31T01:18:37.574Z,0.00
2023-03-31T01:19:37.522Z,0.00
2023-03-31T01:20:37.436Z,0.00
2023-03-31T01:21:37.452Z,0.00
2023-03-31T01:22:37.550Z,0.00
2023-03-31T01:23:37.445Z,0.00
2023-03-31T01:24:37.562Z,0.00
2023-03-31T01:25:37.367Z,0.00
2023-03-31T01:26:37.368Z,0.00
2023-03-31T01:27:37.382Z,0.00
2023-03-31T01:28:37.509Z,0.00
2023-03-31T01:29:38.010Z,0.00
2023-03-31T01:30:37.408Z,0.00
2023-03-31T01:31:37.423Z,0.00
2023-03-31T01:32:37.378Z,0.00
2023-03-31T01:33:37.418Z,0.00
2023-03-31T01:34:37.329Z,0.00
2023-03-31T01:35:38.372Z,0.00
2023-03-31T01:36:37.236Z,0.00
2023-03-31T01:37:37.246Z,0.00
2023-03-31T01:38:37.253Z,0.00
2023-03-31T01:39:37.645Z,0.00
2023-03-31T01:40:37.285Z,0.00
2023-03-31T01:41:37.282Z,0.00
2023-03-31T01:42:37.194Z,0.00
2023-03-31T01:43:37.205Z,0.00
2023-03-31T01:44:37.189Z,0.00
2023-03-31T01:45:37.216Z,0.00
2023-03-31T01:46:37.237Z,0.00
2023-03-31T01:47:37.190Z,0.00
2023-03-31T01:48:37.135Z,0.00
2023-03-31T01:49:37.130Z,0.00
2023-03-31T01:50:37.111Z,0.00
2023-03-31T01:51:37.143Z,0.00
2023-03-31T01:52:37.149Z,0.00
2023-03-31T01:53:37.118Z,0.00
2023-03-31T01:54:37.057Z,0.00
2023-03-31T01:55:37.133Z,0.00
2023-03-31T01:56:37.048Z,0.00
2023-03-31T01:57:37.094Z,0.00
2023-03-31T01:58:37.062Z,0.00
2023-03-31T01:59:37.077Z,0.00
2023-03-31T02:00:36.997Z,0.00
2023-03-31T02:01:37.572Z,0.00
2023-03-31T02:02:37.084Z,0.00
2023-03-31T02:03:37.117Z,0.00
2023-03-31T02:04:37.014Z,0.00
2023-03-31T02:05:36.942Z,0.00
2023-03-31T02:06:37.013Z,0.00
2023-03-31T02:07:36.956Z,0.00
2023-03-31T02:08:36.914Z,0.00
2023-03-31T02:09:36.938Z,0.00
2023-03-31T02:10:36.945Z,0.00
2023-03-31T02:11:36.855Z,0.00
2023-03-31T02:12:36.942Z,0.00
2023-03-31T02:13:36.963Z,0.00
2023-03-31T02:14:36.850Z,0.00
2023-03-31T02:15:37.092Z,0.00
2023-03-31T02:16:36.933Z,0.00
2023-03-31T02:17:36.804Z,0.00
2023-03-31T02:18:37.307Z,0.00
2023-03-31T02:19:36.909Z,0.00
2023-03-31T02:20:36.923Z,0.00
2023-03-31T02:21:37.121Z,0.00
2023-03-31T02:22:36.827Z,0.00
2023-03-31T02:23:36.736Z,0.00
2023-03-31T02:24:36.735Z,0.00
2023-03-31T02:25:36.752Z,0.00
2023-03-31T02:26:36.722Z,0.00
2023-03-31T02:27:36.771Z,0.00
2023-03-31T02:28:36.781Z,0.00
2023-03-31T02:29:36.666Z,0.00
2023-03-31T02:30:36.679Z,0.00
2023-03-31T02:31:37.717Z,0.00
2023-03-31T02:32:37.043Z,0.00
2023-03-31T02:33:37.334Z,0.00
2023-03-31T02:34:36.721Z,0.00
2023-03-31T02:35:36.671Z,0.00
2023-03-31T02:36:36.630Z,0.00
2023-03-31T02:37:36.656Z,0.00
2023-03-31T02:38:36.635Z,0.00
2023-03-31T02:39:36.649Z,0.00
2023-03-31T02:40:36.546Z,0.00
2023-03-31T02:41:36.547Z,0.00
2023-03-31T02:42:36.746Z,0.00
2023-03-31T02:43:36.569Z,0.00
2023-03-31T02:44:36.589Z,0.00
2023-03-31T02:45:36.737Z,0.00
2023-03-31T02:46:36.593Z,0.00
2023-03-31T02:47:36.544Z,0.00
2023-03-31T02:48:36.536Z,0.00
2023-03-31T02:49:36.496Z,0.00
2023-03-31T02:50:36.523Z,0.00
2023-03-31T02:51:37.237Z,0.00
2023-03-31T02:52:36.532Z,0.00
2023-03-31T02:53:36.506Z,0.00
2023-03-31T02:54:36.466Z,0.00
2023-03-31T02:55:36.450Z,0.00
2023-03-31T02:56:36.477Z,0.00
2023-03-31T02:57:36.474Z,0.00
2023-03-31T02:58:36.485Z,0.00
2023-03-31T02:59:36.438Z,0.00
2023-03-31T03:00:36.371Z,0.00
2023-03-31T03:01:36.518Z,0.00
2023-03-31T03:02:39.894Z,0.00
2023-03-31T03:03:37.031Z,0.00
2023-03-31T03:04:36.305Z,0.00
2023-03-31T03:05:37.121Z,0.00
2023-03-31T03:06:36.317Z,0.00
2023-03-31T03:07:36.324Z,0.00
2023-03-31T03:08:36.327Z,0.00
2023-03-31T03:09:36.326Z,0.00
2023-03-31T03:10:36.243Z,0.00
2023-03-31T03:11:36.247Z,0.00
2023-03-31T03:12:36.271Z,0.00
2023-03-31T03:13:36.277Z,0.00
2023-03-31T03:14:36.282Z,0.00
2023-03-31T03:15:36.277Z,0.00
2023-03-31T03:16:36.307Z,0.00
2023-03-31T03:17:36.203Z,0.00
2023-03-31T03:18:36.491Z,0.00
2023-03-31T03:19:36.616Z,0.00
2023-03-31T03:20:36.203Z,0.00
2023-03-31T03:21:36.203Z,0.00
2023-03-31T03:22:36.124Z,0.00
2023-03-31T03:23:36.137Z,0.00
2023-03-31T03:24:36.755Z,0.00
2023-03-31T03:25:36.130Z,0.00
2023-03-31T03:26:36.260Z,0.00
2023-03-31T03:27:36.168Z,0.00
2023-03-31T03:28:36.064Z,0.00
2023-03-31T03:29:36.191Z,0.00
2023-03-31T03:30:36.081Z,0.00
2023-03-31T03:31:36.090Z,0.00
2023-03-31T03:32:36.205Z,0.00
2023-03-31T03:33:36.071Z,0.00
2023-03-31T03:34:36.004Z,0.00
2023-03-31T03:35:35.997Z,0.00
2023-03-31T03:36:36.098Z,0.00
2023-03-31T03:37:36.268Z,0.00
2023-03-31T03:38:35.997Z,0.00
2023-03-31T03:39:35.939Z,0.00
2023-03-31T03:40:35.920Z,0.00
2023-03-31T03:41:35.950Z,0.00
2023-03-31T03:42:35.952Z,0.00
2023-03-31T03:43:36.059Z,0.00
2023-03-31T03:44:35.952Z,0.00
2023-03-31T03:45:36.070Z,0.00
2023-03-31T03:46:35.934Z,0.00
2023-03-31T03:47:35.943Z,0.00
2023-03-31T03:48:35.990Z,0.00
2023-03-31T03:49:35.910Z,0.00
2023-03-31T03:50:35.906Z,0.00
2023-03-31T03:51:36.706Z,0.00
2023-03-31T03:52:35.900Z,0.00
2023-03-31T03:53:35.820Z,0.00
2023-03-31T03:54:35.826Z,0.00
2023-03-31T03:55:35.840Z,0.00
2023-03-31T03:56:35.923Z,0.00
2023-03-31T03:57:35.862Z,0.00
2023-03-31T03:58:35.752Z,0.00
2023-03-31T03:59:35.772Z,0.00
2023-03-31T04:00:35.825Z,0.00
2023-03-31T04:01:35.763Z,0.00
2023-03-31T04:02:35.889Z,0.00
2023-03-31T04:03:36.190Z,0.00
2023-03-31T04:04:35.684Z,0.00
2023-03-31T04:05:35.673Z,0.00
2023-03-31T04:06:35.710Z,0.00
2023-03-31T04:07:35.667Z,0.00
2023-03-31T04:08:35.718Z,0.00
2023-03-31T04:09:35.623Z,0.00
2023-03-31T04:10:35.616Z,0.00
2023-03-31T04:11:35.615Z,0.00
2023-03-31T04:12:35.588Z,0.00
2023-03-31T04:13:35.632Z,0.00
2023-03-31T04:14:35.612Z,0.00
2023-03-31T04:15:35.645Z,0.00
2023-03-31T04:16:35.680Z,0.00
2023-03-31T04:17:35.573Z,0.00
2023-03-31T04:18:35.526Z,0.00
2023-03-31T04:19:35.537Z,0.00
2023-03-31T04:20:35.551Z,0.00
2023-03-31T04:21:35.659Z,0.00
2023-03-31T04:22:35.704Z,0.00
2023-03-31T04:23:35.568Z,0.00
2023-03-31T04:24:35.501Z,0.00
2023-03-31T04:25:35.609Z,0.00
2023-03-31T04:26:35.452Z,0.00
2023-03-31T04:27:35.416Z,0.00
2023-03-31T04:28:35.469Z,0.00
2023-03-31T04:29:35.432Z,0.00
2023-03-31T04:30:35.576Z,0.00
2023-03-31T04:31:36.473Z,0.00
2023-03-31T04:32:35.408Z,0.00
2023-03-31T04:33:35.460Z,0.00
2023-03-31T04:34:35.756Z,0.00
2023-03-31T04:35:35.388Z,0.00
2023-03-31T04:36:35.387Z,0.00
2023-03-31T04:37:35.658Z,0.00
2023-03-31T04:38:35.306Z,0.00
2023-03-31T04:39:35.299Z,0.00
2023-03-31T04:40:35.305Z,0.00
2023-03-31T04:41:35.372Z,0.00
2023-03-31T04:42:35.318Z,0.00
2023-03-31T04:43:35.435Z,0.00
2023-03-31T04:44:35.272Z,0.00
2023-03-31T04:45:35.283Z,0.00
2023-03-31T04:46:35.222Z,0.00
2023-03-31T04:47:35.296Z,0.00
2023-03-31T04:48:35.255Z,0.00
2023-03-31T04:49:35.227Z,0.00
2023-03-31T04:50:35.234Z,0.00
2023-03-31T04:51:35.214Z,0.00
2023-03-31T04:52:35.154Z,0.00
2023-03-31T04:53:35.155Z,0.00
2023-03-31T04:54:35.152Z,0.00
2023-03-31T04:55:35.211Z,0.00
2023-03-31T04:56:35.198Z,0.00
2023-03-31T04:57:35.174Z,0.00
2023-03-31T04:58:35.119Z,0.00
2023-03-31T04:59:35.129Z,0.00
2023-03-31T05:00:35.099Z,0.00
2023-03-31T05:01:35.093Z,0.00
2023-03-31T05:02:35.163Z,1.00
2023-03-31T05:03:35.120Z,1.00
2023-03-31T05:04:35.019Z,1.00
2023-03-31T05:05:35.099Z,1.00
2023-03-31T05:06:34.938Z,1.00
2023-03-31T05:07:35.226Z,1.00
2023-03-31T05:08:34.922Z,1.00
2023-03-31T05:09:35.134Z,1.00
2023-03-31T05:10:34.963Z,1.00
2023-03-31T05:11:35.346Z,1.00
2023-03-31T05:12:34.898Z,1.00
2023-03-31T05:13:35.259Z,1.00
2023-03-31T05:14:35.009Z,1.00
2023-03-31T05:15:35.143Z,1.00
2023-03-31T05:16:34.999Z,1.00
2023-03-31T05:17:34.982Z,1.00
2023-03-31T05:18:34.848Z,1.00
2023-03-31T05:19:34.827Z,1.00
2023-03-31T05:20:34.792Z,1.00
2023-03-31T05:21:34.802Z,1.00
2023-03-31T05:22:34.843Z,1.00
2023-03-31T05:23:34.767Z,1.00
2023-03-31T05:24:34.750Z,1.00
2023-03-31T05:25:34.780Z,1.00
2023-03-31T05:26:34.848Z,1.00
2023-03-31T05:27:34.807Z,1.00
2023-03-31T05:28:34.827Z,1.00
2023-03-31T05:29:34.823Z,1.00
2023-03-31T05:30:34.695Z,1.00
2023-03-31T05:31:34.838Z,1.00
2023-03-31T05:32:34.745Z,1.00
2023-03-31T05:33:34.714Z,1.00
2023-03-31T05:34:34.637Z,1.00
2023-03-31T05:35:34.791Z,1.00
2023-03-31T05:36:34.627Z,1.00
2023-03-31T05:37:34.642Z,1.00
2023-03-31T05:38:35.377Z,1.00
2023-03-31T05:39:34.668Z,1.00
2023-03-31T05:40:34.553Z,1.00
2023-03-31T05:41:34.596Z,1.00
2023-03-31T05:42:34.588Z,1.00
2023-03-31T05:43:34.608Z,1.00
2023-03-31T05:44:34.617Z,1.00
2023-03-31T05:45:34.689Z,1.00
2023-03-31T05:46:34.574Z,1.00
2023-03-31T05:47:34.527Z,1.00
2023-03-31T05:48:34.517Z,1.00
2023-03-31T05:49:34.543Z,1.00
2023-03-31T05:50:34.618Z,1.00
2023-03-31T05:51:34.526Z,1.00
2023-03-31T05:52:34.758Z,1.00
2023-03-31T05:53:34.894Z,1.00
2023-03-31T05:54:34.460Z,1.00
2023-03-31T05:55:34.459Z,1.00
2023-03-31T05:56:34.478Z,1.00
2023-03-31T05:57:34.575Z,1.00
2023-03-31T05:58:34.365Z,1.00
2023-03-31T05:59:34.408Z,1.00
2023-03-31T06:00:34.461Z,1.00
2023-03-31T06:01:34.536Z,1.00
2023-03-31T06:02:34.570Z,1.00
2023-03-31T06:03:34.545Z,1.00
2023-03-31T06:04:34.454Z,1.00
2023-03-31T06:05:34.446Z,1.00
2023-03-31T06:06:37.144Z,1.00
2023-03-31T06:07:34.366Z,1.00
2023-03-31T06:08:34.363Z,1.00
2023-03-31T06:09:34.273Z,1.00
2023-03-31T06:10:34.273Z,1.00
2023-03-31T06:11:34.270Z,1.00
2023-03-31T06:12:34.285Z,1.00
2023-03-31T06:13:34.285Z,1.00
2023-03-31T06:14:35.190Z,1.00
2023-03-31T06:15:34.292Z,1.00
2023-03-31T06:16:34.268Z,1.00
2023-03-31T06:17:35.108Z,1.00
2023-03-31T06:18:34.211Z,1.00
2023-03-31T06:19:34.237Z,1.00
2023-03-31T06:20:34.223Z,1.00
2023-03-31T06:21:34.219Z,1.00
2023-03-31T06:22:34.135Z,1.00
2023-03-31T06:23:34.168Z,1.00
2023-03-31T06:24:34.167Z,1.00
2023-03-31T06:25:47.873Z,1.00
2023-03-31T06:26:34.154Z,1.00
2023-03-31T06:27:34.871Z,1.00
2023-03-31T06:28:34.077Z,1.00
2023-03-31T06:29:34.087Z,1.00
2023-03-31T06:30:34.087Z,1.00
2023-03-31T06:31:34.135Z,1.00
2023-03-31T06:32:34.140Z,1.00
2023-03-31T06:33:34.128Z,1.00
2023-03-31T06:34:34.015Z,1.00
2023-03-31T06:35:34.035Z,1.00
2023-03-31T06:36:34.025Z,1.00
2023-03-31T06:37:34.028Z,1.00
2023-03-31T06:38:34.166Z,1.00
2023-03-31T06:39:34.055Z,1.00
2023-03-31T06:40:34.013Z,1.00
2023-03-31T06:41:34.018Z,1.00
2023-03-31T06:42:34.041Z,1.00
2023-03-31T06:43:33.985Z,1.00
2023-03-31T06:44:33.947Z,1.00
2023-03-31T06:45:33.892Z,1.00
2023-03-31T06:46:33.993Z,1.00
2023-03-31T06:47:33.955Z,1.00
2023-03-31T06:48:33.914Z,1.00
2023-03-31T06:49:33.891Z,1.00
2023-03-31T06:50:33.901Z,1.00
2023-03-31T06:51:33.940Z,1.00
2023-03-31T06:52:33.869Z,1.00
2023-03-31T06:53:33.853Z,1.00
2023-03-31T06:54:33.823Z,1.00
2023-03-31T06:55:33.835Z,1.00
2023-03-31T06:56:34.396Z,1.00
2023-03-31T06:57:33.765Z,1.00
2023-03-31T06:58:33.772Z,1.00
2023-03-31T06:59:33.777Z,1.00
2023-03-31T07:00:33.740Z,1.00
2023-03-31T07:01:33.821Z,1.00
2023-03-31T07:02:33.739Z,1.00
2023-03-31T07:03:33.746Z,1.00
2023-03-31T07:04:33.683Z,1.00
2023-03-31T07:05:33.730Z,1.00
2023-03-31T07:06:33.752Z,1.00
2023-03-31T07:07:33.724Z,1.00
2023-03-31T07:08:33.609Z,1.00
2023-03-31T07:09:33.876Z,1.00
2023-03-31T07:10:33.632Z,1.00
2023-03-31T07:11:33.638Z,1.00
2023-03-31T07:12:33.643Z,1.00
2023-03-31T07:13:33.669Z,1.00
2023-03-31T07:14:33.654Z,1.00
2023-03-31T07:15:33.776Z,1.00
2023-03-31T07:16:33.597Z,1.00
2023-03-31T07:17:33.600Z,1.00
2023-03-31T07:18:35.101Z,1.00
2023-03-31T07:19:33.497Z,1.00
2023-03-31T07:20:33.521Z,1.00
2023-03-31T07:21:33.552Z,1.00
2023-03-31T07:22:33.519Z,1.00
2023-03-31T07:23:33.459Z,1.00
2023-03-31T07:24:33.467Z,1.00
2023-03-31T07:25:33.526Z,1.00
2023-03-31T07:26:33.482Z,1.00
2023-03-31T07:27:33.495Z,1.00
2023-03-31T07:28:33.452Z,1.00
2023-03-31T07:29:33.399Z,1.00
2023-03-31T07:30:35.297Z,1.00
2023-03-31T07:31:36.848Z,1.00
2023-03-31T07:32:35.867Z,1.00
2023-03-31T07:33:57.230Z,0.00
2023-03-31T07:34:38.756Z,0.00
2023-03-31T07:35:34.748Z,0.00
2023-03-31T07:36:35.347Z,0.00
2023-03-31T07:37:33.406Z,0.00
2023-03-31T07:38:33.359Z,0.00
2023-03-31T07:39:34.953Z,0.00
2023-03-31T07:40:33.851Z,0.00
2023-03-31T07:41:33.370Z,0.00
2023-03-31T07:42:33.341Z,0.00
2023-03-31T07:43:33.282Z,0.00
2023-03-31T07:44:33.288Z,0.00
2023-03-31T07:45:33.297Z,0.00
2023-03-31T07:46:33.285Z,0.00
2023-03-31T07:47:33.304Z,0.00
2023-03-31T07:48:33.267Z,0.00
2023-03-31T07:49:33.275Z,0.00
2023-03-31T07:50:33.230Z,0.00
2023-03-31T07:51:33.239Z,0.00
2023-03-31T07:52:33.245Z,0.00
2023-03-31T07:53:33.210Z,0.00
2023-03-31T07:54:34.027Z,0.00
2023-03-31T07:55:33.178Z,0.00
2023-03-31T07:56:33.166Z,0.00
2023-03-31T07:57:33.276Z,0.00
2023-03-31T07:58:33.217Z,0.00
2023-03-31T07:59:33.115Z,0.00
2023-03-31T08:00:33.142Z,0.00
2023-03-31T08:01:33.193Z,0.00
2023-03-31T08:02:33.897Z,0.00
2023-03-31T08:03:33.163Z,0.00
2023-03-31T08:04:33.176Z,0.00
2023-03-31T08:05:33.226Z,0.00
2023-03-31T08:06:33.034Z,0.00
2023-03-31T08:07:33.030Z,0.00
2023-03-31T08:08:33.041Z,0.00
2023-03-31T08:09:33.061Z,0.00
2023-03-31T08:10:33.061Z,0.00
2023-03-31T08:11:33.080Z,0.00
2023-03-31T08:12:32.987Z,0.00
2023-03-31T08:13:32.993Z,0.00
2023-03-31T08:14:40.611Z,0.00
2023-03-31T08:15:33.016Z,0.00
2023-03-31T08:16:33.156Z,0.00
2023-03-31T08:17:33.053Z,0.00
2023-03-31T08:18:33.017Z,0.00
2023-03-31T08:19:32.916Z,0.00
2023-03-31T08:20:32.926Z,0.00
2023-03-31T08:21:32.943Z,0.00
2023-03-31T08:22:32.966Z,0.00
2023-03-31T08:23:32.969Z,0.00
2023-03-31T08:24:32.949Z,0.00
2023-03-31T08:25:32.853Z,0.00
2023-03-31T08:26:32.888Z,0.00
2023-03-31T08:27:32.865Z,0.00
2023-03-31T08:28:32.867Z,0.00
2023-03-31T08:29:32.893Z,0.00
2023-03-31T08:30:32.776Z,0.00
2023-03-31T08:31:32.816Z,0.00
2023-03-31T08:32:32.934Z,0.00
2023-03-31T08:33:32.795Z,0.00
2023-03-31T08:34:33.745Z,0.00
2023-03-31T08:35:32.889Z,0.00
2023-03-31T08:36:32.712Z,0.00
2023-03-31T08:37:32.772Z,0.00
2023-03-31T08:38:32.852Z,0.00
2023-03-31T08:39:32.754Z,0.00
2023-03-31T08:40:32.827Z,0.00
2023-03-31T08:41:32.764Z,0.00
2023-03-31T08:42:32.737Z,0.00
2023-03-31T08:43:32.703Z,0.00
2023-03-31T08:44:32.793Z,0.00
2023-03-31T08:45:32.732Z,0.00
2023-03-31T08:46:32.815Z,0.00
2023-03-31T08:47:32.629Z,0.00
2023-03-31T08:48:32.625Z,0.00
2023-03-31T08:49:32.621Z,0.00
2023-03-31T08:50:32.605Z,0.00
2023-03-31T08:51:32.638Z,0.00
2023-03-31T08:52:32.638Z,0.00
2023-03-31T08:53:32.550Z,0.00
2023-03-31T08:54:32.571Z,0.00
2023-03-31T08:55:32.565Z,0.00
2023-03-31T08:56:32.584Z,0.00
2023-03-31T08:57:32.590Z,0.00
2023-03-31T08:58:32.481Z,0.00
2023-03-31T08:59:32.486Z,0.00
2023-03-31T09:00:32.502Z,1.00
2023-03-31T09:01:35.896Z,0.00
2023-03-31T09:02:32.555Z,1.00
2023-03-31T09:03:32.624Z,0.00
2023-03-31T09:04:33.198Z,0.00
2023-03-31T09:05:32.425Z,0.00
2023-03-31T09:06:32.423Z,1.00
2023-03-31T09:07:32.438Z,0.00
2023-03-31T09:08:32.420Z,2.00
2023-03-31T09:09:32.360Z,2.00
2023-03-31T09:10:32.357Z,4.00
2023-03-31T09:11:32.353Z,3.00
2023-03-31T09:12:32.376Z,2.00
2023-03-31T09:13:32.291Z,1.00
2023-03-31T09:14:32.287Z,1.00
2023-03-31T09:15:32.878Z,2.00
2023-03-31T09:16:32.394Z,1.00
2023-03-31T09:17:32.433Z,1.00
2023-03-31T09:18:32.304Z,1.00
2023-03-31T09:19:32.310Z,1.00
2023-03-31T09:20:32.230Z,1.00
2023-03-31T09:21:32.320Z,3.00
2023-03-31T09:22:32.233Z,2.00
2023-03-31T09:23:32.966Z,4.00
2023-03-31T09:24:32.909Z,3.00
2023-03-31T09:25:32.191Z,3.00
2023-03-31T09:26:32.187Z,4.00
2023-03-31T09:27:32.188Z,4.00
2023-03-31T09:28:32.252Z,4.00
2023-03-31T09:29:32.198Z,5.00
2023-03-31T09:30:32.777Z,4.00
2023-03-31T09:31:32.197Z,9.00
2023-03-31T09:32:32.252Z,7.00
2023-03-31T09:33:32.378Z,5.00
2023-03-31T09:34:32.124Z,7.00
2023-03-31T09:35:32.203Z,8.00
2023-03-31T09:36:32.343Z,10.00
2023-03-31T09:37:32.117Z,7.00
2023-03-31T09:38:32.572Z,7.00
2023-03-31T09:39:37.057Z,7.00
2023-03-31T09:40:37.528Z,11.00
2023-03-31T09:41:36.362Z,10.00
2023-03-31T09:42:32.176Z,12.00
2023-03-31T09:43:32.216Z,13.00
2023-03-31T09:44:32.900Z,10.00
2023-03-31T09:46:09.585Z,10.00
2023-03-31T09:46:34.488Z,13.00
2023-03-31T09:47:36.887Z,12.00
2023-03-31T09:48:35.288Z,13.00
2023-03-31T09:49:35.431Z,12.00
2023-03-31T09:50:37.382Z,13.00
2023-03-31T09:51:55.474Z,12.00
2023-03-31T09:52:34.334Z,14.00
2023-03-31T09:53:37.101Z,14.00
2023-03-31T09:54:39.458Z,13.00
2023-03-31T09:55:40.056Z,17.00
2023-03-31T09:56:34.832Z,18.00
2023-03-31T09:57:35.315Z,19.00
2023-03-31T09:58:35.905Z,15.00
2023-03-31T09:59:33.292Z,16.00
2023-03-31T10:00:34.548Z,16.00
2023-03-31T10:01:36.305Z,14.00
2023-03-31T10:02:35.325Z,16.00
2023-03-31T10:03:32.839Z,20.00
2023-03-31T10:04:35.243Z,27.00
2023-03-31T10:05:35.176Z,40.00
2023-03-31T10:06:33.387Z,19.00
2023-03-31T10:07:32.437Z,50.00
2023-03-31T10:08:34.036Z,27.00
2023-03-31T10:09:32.037Z,27.00
2023-03-31T10:10:35.371Z,22.00
2023-03-31T10:11:36.916Z,24.00
2023-03-31T10:12:39.958Z,24.00
2023-03-31T10:13:34.734Z,22.00
2023-03-31T10:14:33.184Z,22.00
2023-03-31T10:15:34.514Z,25.00
2023-03-31T10:16:33.997Z,22.00
2023-03-31T10:17:37.976Z,23.00
2023-03-31T10:18:33.058Z,28.00
2023-03-31T10:19:33.036Z,30.00
2023-03-31T10:20:34.396Z,34.00
2023-03-31T10:21:35.339Z,38.00
2023-03-31T10:22:33.665Z,40.00
2023-03-31T10:23:33.829Z,44.00
2023-03-31T10:24:35.953Z,91.00
2023-03-31T10:25:32.909Z,38.00
2023-03-31T10:26:32.765Z,30.00
2023-03-31T10:27:36.587Z,36.00
2023-03-31T10:28:34.132Z,36.00
2023-03-31T10:29:32.626Z,34.00
2023-03-31T10:30:32.796Z,38.00
2023-03-31T10:31:33.368Z,35.00
2023-03-31T10:32:32.336Z,37.00
2023-03-31T10:33:33.661Z,39.00
2023-03-31T10:34:32.508Z,47.00
2023-03-31T10:35:32.076Z,44.00
2023-03-31T10:36:32.287Z,49.00
2023-03-31T10:37:33.097Z,53.00
2023-03-31T10:38:33.266Z,57.00
2023-03-31T10:39:32.124Z,50.00
2023-03-31T10:40:32.291Z,50.00
2023-03-31T10:41:32.771Z,48.00
2023-03-31T10:42:34.346Z,48.00
2023-03-31T10:43:31.665Z,46.00
2023-03-31T10:44:33.426Z,54.00
2023-03-31T10:45:37.942Z,51.00
2023-03-31T10:46:33.131Z,50.00
2023-03-31T10:47:34.310Z,51.00
2023-03-31T10:48:34.902Z,52.00
2023-03-31T10:49:33.295Z,50.00
2023-03-31T10:50:40.236Z,54.00
2023-03-31T10:51:33.001Z,48.00
2023-03-31T10:52:32.442Z,51.00
2023-03-31T10:53:34.894Z,51.00
2023-03-31T10:54:33.301Z,50.00
2023-03-31T10:55:32.164Z,52.00
2023-03-31T10:56:34.238Z,57.00
2023-03-31T10:57:32.934Z,53.00
2023-03-31T10:58:32.624Z,50.00
2023-03-31T10:59:35.818Z,51.00
2023-03-31T11:00:33.019Z,44.00
2023-03-31T11:01:35.589Z,60.00
2023-03-31T11:02:34.975Z,54.00
2023-03-31T11:03:33.405Z,59.00
2023-03-31T11:04:51.048Z,63.00
2023-03-31T11:05:34.149Z,57.00
2023-03-31T11:06:32.489Z,53.00
2023-03-31T11:07:33.458Z,77.00
2023-03-31T11:08:34.192Z,58.00
2023-03-31T11:09:32.554Z,60.00
2023-03-31T11:10:33.316Z,103.00
2023-03-31T11:11:33.075Z,87.00
2023-03-31T11:12:32.362Z,65.00
2023-03-31T11:13:31.822Z,59.00
2023-03-31T11:14:32.693Z,61.00
2023-03-31T11:15:31.219Z,65.00
2023-03-31T11:16:31.168Z,88.00
2023-03-31T11:17:31.605Z,98.00
2023-03-31T11:18:31.189Z,82.00
2023-03-31T11:19:31.910Z,94.00
2023-03-31T11:20:31.169Z,75.00
2023-03-31T11:21:31.164Z,93.00
2023-03-31T11:22:31.265Z,65.00
2023-03-31T11:23:31.414Z,87.00
2023-03-31T11:24:32.108Z,103.00
2023-03-31T11:25:32.877Z,71.00
2023-03-31T11:26:31.130Z,103.00
2023-03-31T11:27:31.771Z,90.00
2023-03-31T11:28:30.948Z,87.00
2023-03-31T11:29:31.004Z,91.00
2023-03-31T11:30:30.839Z,84.00
2023-03-31T11:31:31.388Z,93.00
2023-03-31T11:32:31.635Z,82.00
2023-03-31T11:33:30.866Z,84.00
2023-03-31T11:34:30.768Z,92.00
2023-03-31T11:35:30.783Z,140.00
2023-03-31T11:36:30.803Z,114.00
2023-03-31T11:37:30.745Z,127.00
2023-03-31T11:38:30.756Z,99.00
2023-03-31T11:39:30.833Z,96.00
2023-03-31T11:40:30.830Z,102.00
2023-03-31T11:41:30.693Z,109.00
2023-03-31T11:42:30.690Z,182.00
2023-03-31T11:43:30.731Z,107.00
2023-03-31T11:44:30.746Z,122.00
2023-03-31T11:45:32.083Z,118.00
2023-03-31T11:46:30.666Z,161.00
2023-03-31T11:47:31.348Z,140.00
2023-03-31T11:48:30.728Z,158.00
2023-03-31T11:49:30.690Z,122.00
2023-03-31T11:50:30.646Z,133.00
2023-03-31T11:51:30.641Z,197.00
2023-03-31T11:52:31.417Z,222.00
2023-03-31T11:53:30.570Z,138.00
2023-03-31T11:54:30.672Z,142.00
2023-03-31T11:55:31.437Z,158.00
2023-03-31T11:56:30.696Z,166.00
2023-03-31T11:57:30.847Z,108.00
2023-03-31T11:58:30.643Z,133.00
2023-03-31T11:59:30.720Z,142.00
2023-03-31T12:00:30.722Z,157.00
2023-03-31T12:01:32.368Z,156.00
2023-03-31T12:02:30.598Z,140.00
2023-03-31T12:03:30.862Z,124.00
2023-03-31T12:04:30.692Z,133.00
2023-03-31T12:05:30.657Z,115.00
2023-03-31T12:06:30.742Z,121.00
2023-03-31T12:07:30.698Z,139.00
2023-03-31T12:08:30.523Z,166.00
2023-03-31T12:09:31.090Z,113.00
2023-03-31T12:10:30.879Z,122.00
2023-03-31T12:11:30.582Z,134.00
2023-03-31T12:12:30.426Z,194.00
2023-03-31T12:13:30.546Z,166.00
2023-03-31T12:14:30.448Z,168.00
2023-03-31T12:15:30.509Z,124.00
2023-03-31T12:16:30.862Z,184.00
2023-03-31T12:17:30.525Z,145.00
2023-03-31T12:18:30.623Z,148.00
2023-03-31T12:19:30.454Z,159.00
2023-03-31T12:20:30.442Z,157.00
2023-03-31T12:21:30.390Z,159.00
2023-03-31T12:22:30.343Z,148.00
2023-03-31T12:23:30.500Z,166.00
2023-03-31T12:24:30.218Z,155.00
2023-03-31T12:25:30.931Z,168.00
2023-03-31T12:26:31.286Z,176.00
2023-03-31T12:27:30.385Z,254.00
2023-03-31T12:28:30.410Z,278.00
2023-03-31T12:29:31.106Z,185.00
2023-03-31T12:30:30.471Z,156.00
2023-03-31T12:31:30.600Z,156.00
2023-03-31T12:32:30.541Z,147.00
2023-03-31T12:33:30.168Z,165.00
2023-03-31T12:34:30.232Z,156.00
2023-03-31T12:35:30.236Z,209.00
2023-03-31T12:36:30.189Z,156.00
2023-03-31T12:37:30.244Z,229.00
2023-03-31T12:38:30.100Z,168.00
2023-03-31T12:39:30.087Z,164.00
2023-03-31T12:40:30.094Z,165.00
2023-03-31T12:41:30.083Z,176.00
2023-03-31T12:42:30.092Z,186.00
2023-03-31T12:43:30.081Z,234.00
2023-03-31T12:44:30.092Z,204.00
2023-03-31T12:45:30.014Z,198.00
2023-03-31T12:46:30.051Z,187.00
2023-03-31T12:47:30.041Z,219.00
2023-03-31T12:48:30.004Z,252.00
2023-03-31T12:49:29.948Z,206.00
2023-03-31T12:50:29.958Z,248.00
2023-03-31T12:51:30.033Z,239.00
2023-03-31T12:52:29.970Z,183.00
2023-03-31T12:53:30.068Z,229.00
2023-03-31T12:54:29.984Z,280.00
2023-03-31T12:55:29.881Z,198.00
2023-03-31T12:56:30.401Z,200.00
2023-03-31T12:57:30.112Z,211.00
2023-03-31T12:58:32.745Z,264.00
2023-03-31T12:59:29.911Z,232.00
2023-03-31T13:00:30.341Z,253.00
2023-03-31T13:01:29.845Z,205.00
2023-03-31T13:02:29.895Z,241.00
2023-03-31T13:03:29.833Z,225.00
2023-03-31T13:04:29.835Z,183.00
2023-03-31T13:05:29.857Z,221.00
2023-03-31T13:06:30.583Z,272.00
2023-03-31T13:07:29.864Z,205.00
2023-03-31T13:08:29.773Z,272.00